Time;durP1;ratioP1;P1;durP2;ratioP2;P2;SDS_P1;SDS_P2;PMS_P1;PMS_P2;Temp;Humidity;BMP_temperature;BMP_pressure;BME280_temperature;BME280_humidity;BME280_pressure;Samples;Min_cycle;Max_cycle;Signal;HPM_P1;HPM_P2
2022/07/25 00:00:49;;;;;;;10.50;9.60;;;;;;;22.11;100.00;99928.34;4963072;28;20198;-74
2022/07/25 00:03:14;;;;;;;10.70;9.90;;;;;;;22.09;100.00;99927.59;4967074;28;20197;-75
2022/07/25 00:05:39;;;;;;;11.20;10.40;;;;;;;22.07;100.00;99929.47;4964708;28;20186;-75
2022/07/25 00:08:05;;;;;;;11.20;10.40;;;;;;;22.05;100.00;99931.34;4963610;28;20218;-76
2022/07/25 00:10:30;;;;;;;11.20;10.40;;;;;;;22.01;100.00;99935.09;4961246;28;20248;-76
2022/07/25 00:12:56;;;;;;;10.30;9.50;;;;;;;21.95;100.00;99930.22;4965409;28;20288;-75
2022/07/25 00:15:21;;;;;;;10.20;9.50;;;;;;;21.88;100.00;99927.97;4966012;28;20221;-75
2022/07/25 00:17:47;;;;;;;9.87;9.07;;;;;;;21.83;100.00;99926.56;4959755;28;20686;-76
2022/07/25 00:20:12;;;;;;;9.93;9.13;;;;;;;21.80;100.00;99924.13;4963701;28;21760;-75
2022/07/25 00:22:37;;;;;;;10.30;9.60;;;;;;;21.75;100.00;99924.41;4963651;28;20194;-75
2022/07/25 00:25:03;;;;;;;10.47;9.77;;;;;;;21.73;100.00;99919.25;4960795;28;20196;-76
2022/07/25 00:27:28;;;;;;;10.13;9.43;;;;;;;21.72;100.00;99916.69;4956477;28;20197;-76
2022/07/25 00:29:54;;;;;;;9.80;9.00;;;;;;;21.72;100.00;99908.78;4960691;28;20717;-74
2022/07/25 00:32:19;;;;;;;10.20;9.40;;;;;;;21.69;100.00;99915.09;4964602;28;20661;-75
2022/07/25 00:34:45;;;;;;;10.03;9.30;;;;;;;21.68;100.00;99918.66;4963586;28;20679;-74
2022/07/25 00:37:11;;;;;;;10.10;9.30;;;;;;;21.68;100.00;99915.22;4961703;28;20220;-76
2022/07/25 00:39:37;;;;;;;10.00;9.30;;;;;;;21.68;100.00;99904.66;4966959;28;20206;-74
2022/07/25 00:42:02;;;;;;;10.10;9.40;;;;;;;21.67;100.00;99900.34;4963592;28;20253;-74
2022/07/25 00:44:31;;;;;;;10.23;9.43;;;;;;;21.66;100.00;99903.91;4964037;28;20201;-75
2022/07/25 00:46:57;;;;;;;10.57;9.67;;;;;;;21.65;100.00;99896.97;4967337;28;20182;-74
2022/07/25 00:49:23;;;;;;;9.80;9.10;;;;;;;21.62;100.00;99901.47;4963927;28;20229;-74
2022/07/25 00:51:49;;;;;;;10.40;9.67;;;;;;;21.60;100.00;99898.06;4960901;28;20257;-75
2022/07/25 00:54:15;;;;;;;10.10;9.37;;;;;;;21.59;100.00;99909.50;4983690;28;20570;-75
2022/07/25 00:56:41;;;;;;;10.30;9.57;;;;;;;21.54;100.00;99895.81;4972765;28;20190;-75
2022/07/25 00:59:07;;;;;;;10.33;9.57;;;;;;;21.52;100.00;99896.81;4973478;28;20210;-75
2022/07/25 01:01:32;;;;;;;9.80;9.10;;;;;;;21.50;100.00;99885.53;4976527;28;20639;-76
2022/07/25 01:03:57;;;;;;;10.93;10.13;;;;;;;21.48;100.00;99893.53;4970212;28;20562;-75
2022/07/25 01:06:24;;;;;;;10.90;10.10;;;;;;;21.45;100.00;99877.91;4972949;28;20217;-76
2022/07/25 01:08:50;;;;;;;10.20;9.40;;;;;;;21.43;100.00;99878.03;4969659;28;20311;-75
2022/07/25 01:11:15;;;;;;;10.90;10.10;;;;;;;21.41;100.00;99881.66;4970063;28;20341;-76
2022/07/25 01:13:41;;;;;;;10.87;10.07;;;;;;;21.38;100.00;99876.63;4965361;28;20200;-75
2022/07/25 01:16:06;;;;;;;10.50;9.80;;;;;;;21.34;100.00;99875.94;4973846;28;20192;-74
2022/07/25 01:18:33;;;;;;;10.57;9.77;;;;;;;21.28;100.00;99864.00;4963579;28;20220;-75
2022/07/25 01:20:59;;;;;;;11.00;10.20;;;;;;;21.25;100.00;99871.25;4968571;28;20292;-75
2022/07/25 01:23:25;;;;;;;10.70;9.93;;;;;;;21.20;100.00;99861.00;4973984;28;20189;-74
2022/07/25 01:25:50;;;;;;;10.83;10.03;;;;;;;21.14;100.00;99864.84;4968236;28;20264;-74
2022/07/25 01:28:17;;;;;;;10.37;9.57;;;;;;;21.10;100.00;99860.69;4967392;28;20220;-75
2022/07/25 01:30:42;;;;;;;10.30;9.53;;;;;;;21.08;100.00;99859.09;4972458;28;20185;-76
2022/07/25 01:33:08;;;;;;;10.20;9.50;;;;;;;21.06;100.00;99858.34;4965571;28;20964;-76
2022/07/25 01:35:33;;;;;;;10.20;9.47;;;;;;;21.04;100.00;99865.47;4972337;28;20256;-75
2022/07/25 01:37:58;;;;;;;10.67;9.87;;;;;;;20.99;100.00;99857.88;4981619;28;20249;-76
2022/07/25 01:40:24;;;;;;;10.10;9.40;;;;;;;20.96;100.00;99858.03;4968657;28;20264;-75
2022/07/25 01:42:49;;;;;;;10.30;9.60;;;;;;;20.92;100.00;99857.38;4964282;28;20193;-75
2022/07/25 01:45:15;;;;;;;9.90;9.20;;;;;;;20.92;100.00;99851.25;4971627;28;20260;-75
2022/07/25 01:47:40;;;;;;;10.50;9.70;;;;;;;20.89;100.00;99844.41;4969282;28;20188;-75
2022/07/25 01:50:06;;;;;;;10.80;10.00;;;;;;;20.86;100.00;99844.59;4972644;28;20847;-74
2022/07/25 01:52:32;;;;;;;10.73;9.93;;;;;;;20.79;100.00;99846.75;4971174;28;20218;-74
2022/07/25 01:54:57;;;;;;;10.93;10.07;;;;;;;20.79;100.00;99845.91;4974576;28;20194;-76
2022/07/25 01:57:22;;;;;;;9.90;9.20;;;;;;;20.78;100.00;99850.31;4973300;28;20237;-76
2022/07/25 01:59:54;;;;;;;10.23;9.50;;;;;;;20.79;100.00;99838.84;4973072;28;20850;-76
2022/07/25 02:02:19;;;;;;;10.83;9.93;;;;;;;20.76;100.00;99840.81;4971467;28;20216;-75
2022/07/25 02:04:44;;;;;;;10.33;9.63;;;;;;;20.72;100.00;99845.38;4965458;28;20194;-75
2022/07/25 02:07:10;;;;;;;11.03;10.13;;;;;;;20.68;100.00;99839.44;4967775;28;20220;-77
2022/07/25 02:09:35;;;;;;;10.60;9.90;;;;;;;20.61;100.00;99846.00;4969416;28;20590;-76
2022/07/25 02:12:06;;;;;;;11.70;10.80;;;;;;;20.55;100.00;99848.97;4963038;28;20868;-76
2022/07/25 02:14:32;;;;;;;10.20;9.53;;;;;;;20.49;100.00;99844.09;4967163;28;20205;-77
2022/07/25 02:16:58;;;;;;;11.00;10.20;;;;;;;20.44;100.00;99839.06;4969468;28;20220;-76
2022/07/25 02:19:23;;;;;;;11.23;10.23;;;;;;;20.40;100.00;99840.22;4962132;28;20210;-77
2022/07/25 02:21:48;;;;;;;10.90;10.10;;;;;;;20.36;100.00;99841.31;4968592;28;20189;-76
2022/07/25 02:24:14;;;;;;;11.23;10.33;;;;;;;20.34;100.00;99840.53;4959020;28;20187;-76
2022/07/25 02:26:39;;;;;;;10.97;10.13;;;;;;;20.33;100.00;99844.97;4968080;28;20189;-76
2022/07/25 02:29:05;;;;;;;10.33;9.63;;;;;;;20.32;100.00;99840.66;4967067;28;20323;-75
2022/07/25 02:31:30;;;;;;;10.87;10.07;;;;;;;20.31;100.00;99843.34;4971249;28;20216;-76
2022/07/25 02:33:55;;;;;;;11.37;10.57;;;;;;;20.30;100.00;99839.88;4967802;28;20276;-75
2022/07/25 02:36:21;;;;;;;10.67;9.87;;;;;;;20.31;100.00;99848.59;4965868;28;20245;-76
2022/07/25 02:38:46;;;;;;;11.80;10.90;;;;;;;20.32;100.00;99850.28;4966542;28;20213;-75
2022/07/25 02:41:11;;;;;;;10.87;10.07;;;;;;;20.32;100.00;99853.78;4963982;28;20197;-75
2022/07/25 02:43:37;;;;;;;12.03;11.13;;;;;;;20.34;100.00;99851.06;4964843;28;20270;-75
2022/07/25 02:46:03;;;;;;;11.27;10.30;;;;;;;20.30;100.00;99845.13;4964375;28;20643;-76
2022/07/25 02:48:48;;;;;;;11.67;10.77;;;;;;;20.27;100.00;99844.47;4968419;28;20227;-76
2022/07/25 02:51:13;;;;;;;12.70;11.70;;;;;;;20.22;100.00;99835.06;4967285;28;20205;-75
2022/07/25 02:53:39;;;;;;;11.60;10.70;;;;;;;20.19;100.00;99844.91;4965020;28;20256;-75
2022/07/25 02:56:05;;;;;;;11.17;10.37;;;;;;;20.18;100.00;99851.09;4967474;28;20203;-75
2022/07/25 02:58:30;;;;;;;11.27;10.47;;;;;;;20.17;100.00;99849.41;4968691;28;20668;-77
2022/07/25 03:00:55;;;;;;;11.63;10.63;;;;;;;20.16;100.00;99852.94;4969763;28;20204;-76
2022/07/25 03:03:21;;;;;;;11.30;10.40;;;;;;;20.14;100.00;99847.75;4963170;28;20196;-75
2022/07/25 03:05:46;;;;;;;11.57;10.67;;;;;;;20.12;100.00;99846.16;4966272;28;20192;-76
2022/07/25 03:08:12;;;;;;;11.57;10.77;;;;;;;20.09;100.00;99844.56;4966647;28;20223;-75
2022/07/25 03:10:37;;;;;;;11.47;10.67;;;;;;;20.05;100.00;99849.13;4964944;28;20197;-75
2022/07/25 03:13:08;;;;;;;12.00;11.10;;;;;;;20.04;100.00;99843.97;4965763;28;20196;-75
2022/07/25 03:15:33;;;;;;;11.07;10.30;;;;;;;20.00;100.00;99843.31;4968025;28;20204;-75
2022/07/25 03:17:58;;;;;;;11.10;10.20;;;;;;;19.96;100.00;99836.50;4955983;28;20179;-76
2022/07/25 03:20:24;;;;;;;11.17;10.37;;;;;;;19.92;100.00;99833.22;4966946;28;20299;-75
2022/07/25 03:22:49;;;;;;;11.47;10.57;;;;;;;19.92;100.00;99833.22;4966699;28;20228;-75
2022/07/25 03:25:17;;;;;;;11.60;10.80;;;;;;;19.92;100.00;99843.72;4963084;28;20197;-76
2022/07/25 03:27:42;;;;;;;11.83;10.93;;;;;;;19.92;100.00;99845.47;4963429;28;20189;-74
2022/07/25 03:30:08;;;;;;;11.47;10.57;;;;;;;19.90;100.00;99837.72;4966826;28;20817;-75
2022/07/25 03:32:33;;;;;;;11.63;10.63;;;;;;;19.89;100.00;99835.19;4967753;28;20198;-75
2022/07/25 03:34:59;;;;;;;11.67;10.87;;;;;;;19.85;100.00;99833.59;4964254;28;20279;-75
2022/07/25 03:37:24;;;;;;;11.73;10.83;;;;;;;19.82;100.00;99829.34;4969081;28;20653;-75
2022/07/25 03:39:50;;;;;;;12.20;11.20;;;;;;;19.80;100.00;99826.00;4964066;28;20223;-76
2022/07/25 03:42:15;;;;;;;12.67;11.57;;;;;;;19.77;100.00;99831.41;4965155;28;20189;-75
2022/07/25 03:44:40;;;;;;;12.50;11.60;;;;;;;19.73;100.00;99833.34;4965126;28;20200;-76
2022/07/25 03:47:06;;;;;;;11.90;10.90;;;;;;;19.70;100.00;99830.91;4964301;28;20193;-77
2022/07/25 03:49:31;;;;;;;11.67;10.83;;;;;;;19.68;100.00;99827.50;4964799;28;20221;-77
2022/07/25 03:51:57;;;;;;;12.13;11.20;;;;;;;19.65;100.00;99841.66;4964788;28;20274;-76
2022/07/25 03:54:22;;;;;;;11.70;10.80;;;;;;;19.64;100.00;99837.31;4963571;28;20197;-75
2022/07/25 03:56:49;;;;;;;11.17;10.37;;;;;;;19.62;100.00;99831.31;4965599;28;20632;-75
2022/07/25 03:59:17;;;;;;;11.07;10.27;;;;;;;19.60;100.00;99830.53;4963631;28;20217;-76
2022/07/25 04:01:44;;;;;;;11.20;10.20;;;;;;;19.60;100.00;99825.28;4966689;28;20227;-74
2022/07/25 04:04:10;;;;;;;12.03;11.13;;;;;;;19.61;100.00;99826.13;4954277;28;20199;-77
2022/07/25 04:06:42;;;;;;;12.40;11.30;;;;;;;19.67;100.00;99830.19;4960673;28;20200;-76
2022/07/25 04:09:09;;;;;;;11.37;10.40;;;;;;;19.73;100.00;99828.09;4968660;28;20259;-75
2022/07/25 04:11:34;;;;;;;11.53;10.60;;;;;;;19.80;100.00;99828.63;4968034;28;20209;-76
2022/07/25 04:14:01;;;;;;;11.47;10.53;;;;;;;19.87;100.00;99830.00;4974345;28;20221;-75
2022/07/25 04:16:27;;;;;;;11.53;10.63;;;;;;;19.92;100.00;99830.59;4966393;28;20283;-75
2022/07/25 04:18:52;;;;;;;11.30;10.40;;;;;;;19.98;100.00;99833.78;4967953;28;20201;-75
2022/07/25 04:21:18;;;;;;;11.77;10.87;;;;;;;20.09;100.00;99831.44;4962136;28;20208;-76
2022/07/25 04:23:43;;;;;;;12.80;11.63;;;;;;;20.41;100.00;99821.72;4967975;28;20551;-76
2022/07/25 04:26:09;;;;;;;11.63;10.63;;;;;;;20.76;100.00;99815.34;4964873;28;20196;-74
2022/07/25 04:28:34;;;;;;;11.47;10.57;;;;;;;21.06;100.00;99819.72;4967248;28;20248;-75
2022/07/25 04:31:00;;;;;;;11.63;10.73;;;;;;;21.25;100.00;99826.50;4966844;28;20213;-76
2022/07/25 04:33:26;;;;;;;12.10;11.10;;;;;;;21.21;100.00;99825.84;4967452;28;20197;-74
2022/07/25 04:35:51;;;;;;;11.50;10.60;;;;;;;21.12;100.00;99826.41;4962312;28;20604;-75
2022/07/25 04:38:17;;;;;;;11.77;10.73;;;;;;;21.16;100.00;99820.88;4965621;28;20272;-76
2022/07/25 04:40:42;;;;;;;11.43;10.60;;;;;;;21.28;100.00;99819.25;4964247;28;20971;-75
2022/07/25 04:43:08;;;;;;;11.53;10.60;;;;;;;21.35;100.00;99811.00;4967393;28;20284;-75
2022/07/25 04:45:34;;;;;;;11.40;10.60;;;;;;;21.43;100.00;99811.34;4966791;28;20190;-76
2022/07/25 04:48:00;;;;;;;11.10;10.20;;;;;;;21.87;100.00;99806.91;4967547;28;20739;-75
2022/07/25 04:50:26;;;;;;;10.73;9.93;;;;;;;22.65;100.00;99808.88;4966927;28;20741;-75
2022/07/25 04:52:51;;;;;;;10.47;9.67;;;;;;;22.99;100.00;99803.09;4963289;28;20285;-75
2022/07/25 04:55:17;;;;;;;11.27;10.47;;;;;;;22.91;100.00;99800.97;4958636;28;20280;-76
2022/07/25 04:57:42;;;;;;;11.13;10.23;;;;;;;22.77;100.00;99798.44;4966745;28;20226;-76
2022/07/25 05:00:09;;;;;;;10.77;10.00;;;;;;;22.73;100.00;99808.34;4966780;28;20309;-76
2022/07/25 05:02:35;;;;;;;10.50;9.70;;;;;;;22.82;100.00;99791.88;4965585;28;20194;-74
2022/07/25 05:05:01;;;;;;;11.70;10.80;;;;;;;22.91;100.00;99802.78;4966263;28;20236;-74
2022/07/25 05:07:27;;;;;;;11.10;10.30;;;;;;;22.87;100.00;99793.38;4966423;28;20198;-75
2022/07/25 05:09:53;;;;;;;11.50;10.60;;;;;;;22.85;100.00;99793.47;4966557;28;20213;-75
2022/07/25 05:12:19;;;;;;;10.70;9.90;;;;;;;22.86;100.00;99792.50;4964032;28;20603;-75
2022/07/25 05:14:44;;;;;;;10.17;9.37;;;;;;;22.94;100.00;99787.56;4966472;28;20189;-75
2022/07/25 05:17:10;;;;;;;10.03;9.27;;;;;;;23.10;100.00;99792.63;4964283;28;20194;-75
2022/07/25 05:19:35;;;;;;;10.20;9.43;;;;;;;23.52;99.46;99789.75;4962615;28;20264;-76
2022/07/25 05:22:01;;;;;;;9.83;9.13;;;;;;;24.10;97.29;99788.31;4964488;28;20194;-76
2022/07/25 05:24:26;;;;;;;10.67;9.87;;;;;;;24.81;94.99;99786.47;4963520;28;20658;-76
2022/07/25 05:26:52;;;;;;;10.20;9.50;;;;;;;25.58;92.48;99780.63;4965912;28;20210;-76
2022/07/25 05:29:18;;;;;;;8.60;8.00;;;;;;;26.31;89.87;99778.25;4966684;28;20232;-75
2022/07/25 05:31:43;;;;;;;9.67;8.90;;;;;;;27.48;86.58;99774.53;4967253;28;20186;-75
2022/07/25 05:34:09;;;;;;;8.67;8.07;;;;;;;28.87;83.09;99777.09;4961219;28;20195;-75
2022/07/25 05:36:34;;;;;;;8.40;7.90;;;;;;;30.07;79.74;99779.84;4966953;28;20272;-76
2022/07/25 05:39:00;;;;;;;8.73;8.13;;;;;;;31.02;76.80;99777.34;4968803;28;21320;-75
2022/07/25 05:41:25;;;;;;;8.67;8.07;;;;;;;31.86;74.00;99773.16;4967692;28;20221;-77
2022/07/25 05:43:51;;;;;;;8.23;7.63;;;;;;;32.59;71.91;99778.69;4983093;28;20185;-76
2022/07/25 05:46:17;;;;;;;8.17;7.67;;;;;;;33.24;70.46;99768.78;4968930;28;20198;-75
2022/07/25 05:48:43;;;;;;;8.30;7.70;;;;;;;33.84;68.67;99764.63;4962638;28;20316;-77
2022/07/25 05:51:08;;;;;;;7.78;7.28;;;;;;;34.40;67.07;99768.06;4970142;28;20197;-76
2022/07/25 05:53:36;;;;;;;8.18;7.68;;;;;;;34.84;66.03;99764.59;4968618;28;20674;-76
2022/07/25 05:56:02;;;;;;;7.53;7.03;;;;;;;35.31;65.13;99762.53;4968644;28;20186;-76
2022/07/25 05:58:27;;;;;;;7.80;7.30;;;;;;;35.74;64.24;99756.41;4967635;28;20283;-76
2022/07/25 06:00:53;;;;;;;7.90;7.40;;;;;;;36.09;63.08;99772.66;4970325;28;20197;-76
2022/07/25 06:03:19;;;;;;;7.90;7.40;;;;;;;36.41;62.29;99772.31;4968306;28;20563;-76
2022/07/25 06:05:46;;;;;;;7.93;7.43;;;;;;;36.70;61.37;99773.97;4970655;28;20181;-77
2022/07/25 06:08:13;;;;;;;7.57;7.07;;;;;;;36.98;60.64;99775.84;4969621;28;20209;-76
2022/07/25 06:10:39;;;;;;;7.97;7.47;;;;;;;37.27;60.25;99773.88;4968927;28;20464;-75
2022/07/25 06:13:05;;;;;;;7.80;7.20;;;;;;;37.51;59.41;99769.00;4970217;28;20185;-75
2022/07/25 06:15:30;;;;;;;8.32;7.72;;;;;;;37.66;58.59;99769.66;4971548;28;20193;-75
2022/07/25 06:17:56;;;;;;;9.10;8.50;;;;;;;37.77;58.33;99764.66;4969391;28;20205;-76
2022/07/25 06:20:21;;;;;;;8.60;7.97;;;;;;;37.94;56.86;99759.75;4970692;28;20200;-76
2022/07/25 06:22:47;;;;;;;9.32;8.73;;;;;;;37.80;56.29;99764.25;4969885;28;20197;-76
2022/07/25 06:25:13;;;;;;;9.77;9.07;;;;;;;37.66;55.85;99758.84;4970553;28;20268;-77
2022/07/25 06:27:39;;;;;;;9.00;8.40;;;;;;;37.59;56.31;99768.78;4970667;28;20202;-75
2022/07/25 06:30:06;;;;;;;9.32;8.63;;;;;;;37.65;56.35;99764.47;4970279;28;20202;-77
2022/07/25 06:32:31;;;;;;;8.77;8.15;;;;;;;37.69;55.85;99757.59;4964615;28;20182;-76
2022/07/25 06:34:56;;;;;;;9.77;9.07;;;;;;;37.74;56.05;99755.13;4969268;28;20210;-76
2022/07/25 06:37:22;;;;;;;9.13;8.52;;;;;;;37.91;56.58;99752.88;4967692;28;20193;-76
2022/07/25 06:39:48;;;;;;;8.02;7.53;;;;;;;38.18;55.96;99757.44;4969603;28;20300;-75
2022/07/25 06:42:13;;;;;;;9.20;8.60;;;;;;;38.26;56.14;99757.25;4966540;28;20208;-76
2022/07/25 06:44:38;;;;;;;8.68;8.07;;;;;;;38.29;56.07;99759.50;4969153;28;20190;-75
2022/07/25 06:47:04;;;;;;;8.88;8.27;;;;;;;38.41;56.37;99765.16;4969169;28;20215;-75
2022/07/25 06:49:30;;;;;;;9.07;8.40;;;;;;;38.54;56.32;99753.50;4969754;28;20851;-76
2022/07/25 06:51:55;;;;;;;8.52;7.93;;;;;;;38.69;55.50;99753.22;4968360;28;20193;-75
2022/07/25 06:54:21;;;;;;;8.52;7.90;;;;;;;38.76;55.86;99748.66;4958506;28;20197;-75
2022/07/25 06:56:46;;;;;;;7.85;7.35;;;;;;;38.86;55.84;99748.25;4963165;28;20643;-74
2022/07/25 06:59:11;;;;;;;9.00;8.23;;;;;;;38.82;55.59;99744.25;4964035;28;20404;-75
2022/07/25 07:01:37;;;;;;;8.57;7.97;;;;;;;38.78;55.76;99741.16;4968231;28;20220;-75
2022/07/25 07:04:03;;;;;;;7.70;7.20;;;;;;;38.91;55.37;99740.28;4965511;28;20297;-75
2022/07/25 07:06:29;;;;;;;8.65;8.10;;;;;;;38.86;54.95;99738.25;4966836;28;20221;-75
2022/07/25 07:08:55;;;;;;;8.85;8.25;;;;;;;38.77;55.60;99741.34;4966454;28;20249;-75
2022/07/25 07:11:20;;;;;;;8.05;7.47;;;;;;;38.74;55.01;99739.91;4967473;28;20621;-76
2022/07/25 07:13:45;;;;;;;8.23;7.70;;;;;;;38.47;55.12;99737.28;4968365;28;20174;-76
2022/07/25 07:16:11;;;;;;;8.52;7.93;;;;;;;38.33;55.15;99741.03;4970619;28;20193;-76
2022/07/25 07:18:37;;;;;;;8.52;7.88;;;;;;;38.23;55.05;99736.06;4964202;28;20209;-75
2022/07/25 07:21:03;;;;;;;8.13;7.50;;;;;;;38.19;55.50;99740.19;4969611;28;20555;-75
2022/07/25 07:23:29;;;;;;;8.35;7.78;;;;;;;38.30;55.83;99739.56;4968072;28;20285;-74
2022/07/25 07:25:54;;;;;;;7.97;7.38;;;;;;;38.37;55.91;99740.44;4968865;28;20675;-75
2022/07/25 07:28:20;;;;;;;8.52;8.02;;;;;;;38.37;55.69;99740.44;4969273;28;20205;-75
2022/07/25 07:30:45;;;;;;;8.38;7.78;;;;;;;38.32;56.04;99742.06;4976156;28;20181;-75
2022/07/25 07:33:11;;;;;;;8.80;8.07;;;;;;;38.19;55.84;99734.81;4985998;28;20870;-76
2022/07/25 07:35:36;;;;;;;8.52;7.88;;;;;;;38.05;55.65;99742.06;4968243;28;20178;-76
2022/07/25 07:38:01;;;;;;;9.05;8.32;;;;;;;37.82;56.01;99735.19;4968447;28;20280;-76
2022/07/25 07:40:27;;;;;;;7.90;7.40;;;;;;;37.69;56.89;99741.41;4967335;28;20224;-76
2022/07/25 07:42:52;;;;;;;8.10;7.60;;;;;;;37.62;57.35;99737.88;4958024;28;20198;-76
2022/07/25 07:45:22;;;;;;;8.93;8.32;;;;;;;37.54;56.79;99740.75;4966233;28;20736;-77
2022/07/25 07:47:50;;;;;;;7.85;7.25;;;;;;;37.44;56.97;99741.16;4968019;28;20194;-77
2022/07/25 07:50:18;;;;;;;8.00;7.40;;;;;;;37.36;57.37;99742.97;4974796;28;20208;-76
2022/07/25 07:52:44;;;;;;;8.23;7.60;;;;;;;37.28;57.31;99732.38;4967235;28;20198;-77
2022/07/25 07:57:55;;;;;;;8.60;8.00;;;;;;;37.00;57.91;99740.56;4967207;28;20228;-76
2022/07/25 08:00:20;;;;;;;8.55;7.85;;;;;;;36.84;58.04;99745.25;4966314;28;20644;-76
2022/07/25 08:02:49;;;;;;;8.27;7.78;;;;;;;36.72;58.33;99736.88;4966060;28;20193;-76
2022/07/25 08:05:27;;;;;;;8.07;7.47;;;;;;;36.55;58.32;99743.59;4964270;28;20182;-76
2022/07/25 08:07:53;;;;;;;8.82;8.13;;;;;;;36.30;57.76;99735.97;4966907;28;20272;-76
2022/07/25 08:10:21;;;;;;;8.50;7.82;;;;;;;36.04;58.33;99731.19;4952887;28;20690;-77
2022/07/25 08:12:46;;;;;;;8.95;8.35;;;;;;;35.88;59.14;99735.81;4965587;28;20232;-77
2022/07/25 08:15:12;;;;;;;8.25;7.75;;;;;;;35.74;59.75;99747.47;4965599;28;20205;-76
2022/07/25 08:17:37;;;;;;;8.15;7.65;;;;;;;35.59;60.33;99740.28;4967282;28;20221;-76
2022/07/25 08:20:07;;;;;;;8.50;7.80;;;;;;;35.49;60.19;99748.66;4966438;28;20732;-76
2022/07/25 08:22:40;;;;;;;8.48;7.88;;;;;;;35.34;60.75;99737.09;4967985;28;21032;-77
2022/07/25 08:25:07;;;;;;;8.20;7.70;;;;;;;35.21;60.65;99740.47;4967029;28;20201;-76
2022/07/25 08:27:32;;;;;;;8.65;7.95;;;;;;;35.06;61.22;99733.28;4968029;28;20186;-76
2022/07/25 08:30:00;;;;;;;9.05;8.45;;;;;;;34.91;61.53;99732.44;4959737;28;20392;-77
2022/07/25 08:32:27;;;;;;;8.73;8.13;;;;;;;34.79;61.61;99732.88;4967326;28;20193;-76
2022/07/25 08:34:53;;;;;;;9.48;8.70;;;;;;;34.67;61.98;99729.00;4963029;28;21131;-76
2022/07/25 08:37:18;;;;;;;8.88;8.18;;;;;;;34.57;62.26;99739.19;4962681;28;20201;-77
2022/07/25 08:39:44;;;;;;;9.18;8.57;;;;;;;34.51;61.80;99732.72;4966189;28;20871;-77
2022/07/25 08:42:09;;;;;;;9.60;8.80;;;;;;;34.43;62.12;99728.25;4966364;28;20190;-76
2022/07/25 08:44:39;;;;;;;8.70;8.13;;;;;;;34.31;62.19;99735.06;4967040;28;20717;-77
2022/07/25 08:47:06;;;;;;;8.60;8.00;;;;;;;34.22;63.01;99736.16;4960579;28;20193;-77
2022/07/25 08:49:34;;;;;;;9.85;9.15;;;;;;;34.10;62.57;99728.53;4961919;28;20209;-76
2022/07/25 08:52:01;;;;;;;10.43;9.63;;;;;;;33.91;63.44;99716.47;4965709;28;20703;-76
2022/07/25 08:54:26;;;;;;;10.10;9.30;;;;;;;33.77;63.45;99717.22;4967413;28;20189;-76
2022/07/25 08:56:52;;;;;;;8.80;8.20;;;;;;;33.62;63.55;99715.31;4958477;28;20561;-76
2022/07/25 08:59:17;;;;;;;9.02;8.40;;;;;;;33.53;62.81;99716.34;4959753;28;20225;-76
2022/07/25 09:01:42;;;;;;;9.63;8.73;;;;;;;33.46;63.26;99718.09;4965093;28;20696;-76
2022/07/25 09:04:10;;;;;;;9.73;9.00;;;;;;;33.42;63.39;99714.94;4966686;28;20384;-76
2022/07/25 09:06:36;;;;;;;9.93;9.23;;;;;;;33.43;62.40;99716.59;4966749;28;20646;-77
2022/07/25 09:09:07;;;;;;;9.85;9.15;;;;;;;33.38;62.69;99711.75;4963684;28;20291;-76
2022/07/25 09:11:35;;;;;;;9.35;8.70;;;;;;;33.37;63.52;99712.78;4966570;28;20240;-75
2022/07/25 09:14:05;;;;;;;9.20;8.50;;;;;;;33.40;63.57;99704.38;4958912;28;20555;-76
2022/07/25 09:16:40;;;;;;;9.27;8.57;;;;;;;33.42;63.43;99701.53;4970688;28;20190;-76
2022/07/25 09:19:15;;;;;;;9.23;8.52;;;;;;;33.42;63.98;99699.69;4970585;28;20216;-76
2022/07/25 09:21:42;;;;;;;8.85;8.27;;;;;;;33.42;63.87;99707.72;4969091;28;20217;-75
2022/07/25 09:24:21;;;;;;;9.93;9.13;;;;;;;33.46;63.53;99699.31;4969208;28;20252;-75
2022/07/25 09:26:52;;;;;;;9.57;8.88;;;;;;;33.47;63.58;99699.13;4966472;28;20204;-76
2022/07/25 09:29:19;;;;;;;8.43;7.82;;;;;;;33.53;63.69;99701.13;4969509;28;20222;-75
2022/07/25 09:31:44;;;;;;;9.23;8.63;;;;;;;33.61;63.80;99691.31;4979783;28;20216;-76
2022/07/25 09:34:11;;;;;;;7.95;7.38;;;;;;;33.64;64.19;99683.78;4988370;28;20180;-76
2022/07/25 09:36:42;;;;;;;8.43;7.68;;;;;;;33.65;64.03;99685.44;4985764;28;20181;-76
2022/07/25 09:39:07;;;;;;;9.82;8.85;;;;;;;33.73;62.62;99676.50;4979844;28;20197;-75
2022/07/25 09:41:39;;;;;;;9.18;8.57;;;;;;;33.80;63.12;99680.13;4971985;28;20706;-75
2022/07/25 09:44:18;;;;;;;8.55;7.95;;;;;;;33.90;63.00;99677.22;4987259;28;20185;-76
2022/07/25 09:46:44;;;;;;;9.45;8.65;;;;;;;33.99;60.79;99668.06;5004108;28;20228;-76
2022/07/25 09:49:13;;;;;;;9.07;8.45;;;;;;;34.03;60.88;99666.69;4990311;28;20244;-75
2022/07/25 09:51:39;;;;;;;8.43;7.82;;;;;;;34.09;60.12;99672.34;4985107;28;20198;-75
2022/07/25 09:54:04;;;;;;;8.75;8.13;;;;;;;34.17;59.76;99666.88;4994087;28;20664;-75
2022/07/25 09:56:31;;;;;;;8.23;7.63;;;;;;;34.17;59.77;99665.06;4989282;28;20192;-76
2022/07/25 09:58:57;;;;;;;8.25;7.75;;;;;;;34.19;59.72;99673.72;4991319;28;20197;-75
2022/07/25 10:01:33;;;;;;;8.25;7.65;;;;;;;34.27;59.52;99672.00;4984278;28;20254;-75
2022/07/25 10:04:23;;;;;;;8.10;7.60;;;;;;;34.38;59.94;99662.66;4987395;28;20199;-75
2022/07/25 10:07:03;;;;;;;8.25;7.65;;;;;;;34.49;60.04;99663.03;4987131;28;20189;-75
2022/07/25 10:09:29;;;;;;;9.00;8.30;;;;;;;34.65;59.97;99666.53;4984662;28;20247;-75
2022/07/25 10:12:08;;;;;;;8.30;7.80;;;;;;;34.88;59.57;99655.66;4981372;28;20187;-76
2022/07/25 10:14:36;;;;;;;8.40;7.80;;;;;;;35.09;59.60;99649.53;4986204;28;20660;-75
2022/07/25 10:17:01;;;;;;;8.43;7.93;;;;;;;35.27;59.10;99652.81;4984535;28;20216;-75
2022/07/25 10:19:46;;;;;;;9.52;8.68;;;;;;;35.45;57.95;99653.25;4985908;28;20731;-76
2022/07/25 10:22:13;;;;;;;9.00;8.30;;;;;;;35.49;58.17;99665.25;4988491;28;20235;-77
2022/07/25 10:24:43;;;;;;;8.80;8.10;;;;;;;35.62;57.85;99655.69;4986799;28;20181;-75
2022/07/25 10:27:13;;;;;;;8.43;7.88;;;;;;;35.85;57.75;99652.72;4986420;28;20232;-76
2022/07/25 10:29:40;;;;;;;8.52;7.88;;;;;;;36.11;56.71;99643.22;4981721;28;20221;-77
2022/07/25 10:32:15;;;;;;;8.98;8.27;;;;;;;36.34;56.70;99647.50;4987053;28;20218;-76
2022/07/25 10:34:53;;;;;;;8.80;8.15;;;;;;;36.63;56.48;99629.41;4985064;28;20210;-75
2022/07/25 10:37:26;;;;;;;8.88;8.25;;;;;;;36.81;56.89;99650.47;4979953;28;20188;-77
2022/07/25 10:39:52;;;;;;;8.32;7.68;;;;;;;36.81;56.55;99651.28;5001006;28;20196;-76
2022/07/25 10:42:20;;;;;;;7.60;7.10;;;;;;;36.86;56.27;99648.81;4985556;28;20834;-77
2022/07/25 10:44:48;;;;;;;7.68;7.18;;;;;;;37.00;56.18;99648.88;5001513;28;20201;-77
2022/07/25 10:47:15;;;;;;;7.35;6.75;;;;;;;37.32;55.51;99641.88;4985810;28;20193;-76
2022/07/25 10:49:44;;;;;;;7.60;7.10;;;;;;;37.55;55.56;99638.00;4989186;28;20246;-75
2022/07/25 10:52:16;;;;;;;7.88;7.38;;;;;;;37.65;55.46;99641.09;4984502;28;20184;-76
2022/07/25 10:54:52;;;;;;;7.65;7.15;;;;;;;37.61;55.75;99642.56;4987580;28;20193;-77
2022/07/25 10:57:17;;;;;;;7.68;7.20;;;;;;;37.64;55.63;99638.63;4988622;28;20180;-75
2022/07/25 10:59:43;;;;;;;7.90;7.30;;;;;;;37.73;55.54;99637.38;4985366;28;20228;-76
2022/07/25 11:02:16;;;;;;;6.80;6.35;;;;;;;37.78;55.80;99634.88;4983584;28;20197;-75
2022/07/25 11:04:56;;;;;;;7.95;7.45;;;;;;;37.79;55.74;99641.94;4985304;28;20939;-77
2022/07/25 11:07:21;;;;;;;7.68;7.18;;;;;;;37.69;55.30;99633.41;4998157;28;20567;-76
2022/07/25 11:09:59;;;;;;;7.70;7.10;;;;;;;37.69;55.78;99635.31;4987633;28;20216;-77
2022/07/25 11:12:25;;;;;;;7.95;7.45;;;;;;;37.64;55.63;99641.31;4998632;28;20212;-77
2022/07/25 11:14:59;;;;;;;7.85;7.35;;;;;;;37.74;55.41;99638.22;4985323;28;20185;-77
2022/07/25 11:17:24;;;;;;;7.45;6.95;;;;;;;37.76;55.06;99630.72;4984961;28;20189;-76
2022/07/25 11:19:54;;;;;;;7.68;7.18;;;;;;;37.84;55.06;99627.81;4986735;28;20282;-77
2022/07/25 11:22:19;;;;;;;7.65;7.15;;;;;;;37.87;55.35;99627.41;4974962;28;20223;-78
2022/07/25 11:24:46;;;;;;;7.45;6.95;;;;;;;37.96;55.42;99618.06;4983377;28;20218;-74